Weather History for KORS - July, 2013

Change the Weather History Date:

Sunday, July 7, 2013

  Actual Average (KBLI) Record (KBLI)
Temperature  
Mean Temperature 62 °F 61 °F  
Max Temperature 68 °F 70 °F 88 °F (1953)
Min Temperature 55 °F 53 °F 40 °F (1957)
Degree Days  
Heating Degree Days 4 4  
Month to date heating degree days 28  
Since 1 June heating degree days 229  
Cooling Degree Days 0 0  
Month to date cooling degree days 0  
Year to date cooling degree days 4  
Since 1 June cooling degree days 4  
Growing Degree Days 12 (Base 50)    
Moisture  
Dew Point 56 °F    
Average Humidity 78    
Maximum Humidity 94    
Minimum Humidity 64    
Precipitation  
Precipitation 0.00 in 0.04 in 0.60 in (1963)
Month to date precipitation 0.32  
Year to date precipitation 18.26  
Sea Level Pressure  
Sea Level Pressure 29.90 in    
Wind  
Wind Speed 4 mph (North)    
Max Wind Speed 9 mph    
Max Gust Speed -    
Visibility 9 miles    
Events      
T = Trace of Precipitation, MM = Missing Value Source: NWS Daily Summary

Daily Weather History Graph

Daily Weather History Graph

Search for Another Location

Airport or City:

Trip Planner

Search our weather history database for the weather conditions in past years. The results will help you decide how hot, cold, wet, or windy it might be!

Date:

Astronomy

Jul. 07, 2013 Rise Set
Actual Time 5:17 AM PDT 9:15 PM PDT
Civil Twilight 4:36 AM PDT 9:56 PM PDT
Nautical Twilight 3:38 AM PDT 10:53 PM PDT
Astronomical Twilight 2:02 AM PDT 12:27 AM PDT
Moon 5:04 AM PDT (7/7) 8:35 PM PDT (7/7)
Length of Visible Light 17h 20m
Length of Day
15h 57m
Waning Crescent, 0% of the Moon is Illuminated
Jul 7
Waning Crescent
Jul 8
New
Jul 15
First Quarter
Jul 22
Full
Jul 29
Last Quarter

Hourly Weather History & Observations

Time (PDT) Temp. Dew Point Humidity Pressure Visibility Wind Dir Wind Speed Gust Speed Precip Events Conditions
12:15 AM 59.0 °F 53.6 °F 82% 29.86 in 10.0 mi South 4.6 mph - N/A   Clear
12:35 AM 59.0 °F 53.6 °F 82% 29.87 in 10.0 mi South 3.5 mph - N/A   Clear
12:55 AM 59.0 °F 53.6 °F 82% 29.87 in 10.0 mi South 5.8 mph - N/A   Clear
1:15 AM 57.2 °F 53.6 °F 88% 29.87 in 10.0 mi Calm Calm - N/A   Clear
1:35 AM 57.2 °F 53.6 °F 88% 29.88 in 10.0 mi Calm Calm - N/A   Clear
1:55 AM 59.0 °F 51.8 °F 77% 29.87 in 10.0 mi North - - N/A   Clear
2:15 AM 57.2 °F 51.8 °F 82% 29.88 in 10.0 mi South 3.5 mph - N/A   Clear
2:35 AM 57.2 °F 51.8 °F 82% 29.88 in 10.0 mi Calm Calm - N/A   Clear
2:55 AM 57.2 °F 51.8 °F 82% 29.88 in 9.0 mi Calm Calm - N/A   Clear
3:15 AM 55.4 °F 53.6 °F 94% 29.89 in 9.0 mi Calm Calm - N/A   Clear
3:35 AM 55.4 °F 51.8 °F 88% 29.89 in 10.0 mi Calm Calm - N/A   Clear
3:55 AM 55.4 °F 51.8 °F 88% 29.89 in 10.0 mi Calm Calm - N/A   Clear
4:15 AM 55.4 °F 53.6 °F 94% 29.89 in 10.0 mi Calm Calm - N/A   Clear
4:35 AM 55.4 °F 51.8 °F 88% 29.89 in 10.0 mi Calm Calm - N/A   Clear
4:55 AM 59.0 °F 55.4 °F 88% 29.89 in 10.0 mi NNW 6.9 mph - N/A   Clear
5:15 AM 62.6 °F 55.4 °F 77% 29.90 in 10.0 mi NNW 8.1 mph - N/A   Clear
5:35 AM 62.6 °F 55.4 °F 77% 29.90 in 9.0 mi NNW 6.9 mph - N/A   Clear
5:55 AM 62.6 °F 57.2 °F 82% 29.90 in 8.0 mi North 9.2 mph - N/A   Clear
6:15 AM 62.6 °F 57.2 °F 82% 29.91 in 9.0 mi North 9.2 mph - N/A   Clear
6:35 AM 62.6 °F 57.2 °F 82% 29.91 in 9.0 mi North 8.1 mph - N/A   Clear
6:55 AM 62.6 °F 57.2 °F 82% 29.91 in 9.0 mi North 8.1 mph - N/A   Clear
7:15 AM 62.6 °F 57.2 °F 82% 29.91 in 9.0 mi Calm Calm - N/A   Clear
7:35 AM 62.6 °F 57.2 °F 82% 29.92 in 8.0 mi Calm Calm - N/A   Clear
7:55 AM 62.6 °F 55.4 °F 77% 29.92 in 9.0 mi Calm Calm - N/A   Clear
8:15 AM 62.6 °F 55.4 °F 77% 29.93 in 9.0 mi Calm Calm - N/A   Clear
8:35 AM 62.6 °F 57.2 °F 82% 29.93 in 9.0 mi Calm Calm - N/A   Clear
8:55 AM 62.6 °F 57.2 °F 82% 29.93 in 9.0 mi North 4.6 mph - N/A   Clear
9:15 AM 62.6 °F 57.2 °F 82% 29.93 in 9.0 mi Calm Calm - N/A   Clear
9:35 AM 62.6 °F 57.2 °F 82% 29.93 in 9.0 mi North 5.8 mph - N/A   Clear
9:55 AM 62.6 °F 57.2 °F 82% 29.93 in 9.0 mi NNW 4.6 mph - N/A   Clear
10:15 AM 64.4 °F 57.2 °F 77% 29.94 in 8.0 mi North 9.2 mph - N/A   Clear
10:35 AM 64.4 °F 57.2 °F 77% 29.94 in 10.0 mi North 8.1 mph - N/A   Clear
10:55 AM 62.6 °F 57.2 °F 82% 29.94 in 9.0 mi NNW 8.1 mph - N/A   Clear
11:15 AM 64.4 °F 57.2 °F 77% 29.94 in 9.0 mi North 5.8 mph - N/A   Clear
11:35 AM 64.4 °F 57.2 °F 77% 29.94 in 10.0 mi North 6.9 mph - N/A   Clear
11:55 AM 64.4 °F 57.2 °F 77% 29.93 in 9.0 mi North 6.9 mph - N/A   Clear
12:15 PM 64.4 °F 57.2 °F 77% 29.93 in 7.0 mi North 5.8 mph - N/A   Clear
12:35 PM 64.4 °F 57.2 °F 77% 29.93 in 9.0 mi North 6.9 mph - N/A   Clear
12:55 PM 64.4 °F 57.2 °F 77% 29.92 in 9.0 mi North 8.1 mph - N/A   Clear
1:15 PM 64.4 °F 57.2 °F 77% 29.92 in 9.0 mi NNW 6.9 mph - N/A   Clear
1:35 PM 64.4 °F 57.2 °F 77% 29.92 in 9.0 mi NNW 6.9 mph - N/A   Clear
1:55 PM 66.2 °F 57.2 °F 73% 29.92 in 9.0 mi North 5.8 mph - N/A   Clear
2:15 PM 64.4 °F 57.2 °F 77% 29.91 in 9.0 mi North 6.9 mph - N/A   Clear
2:35 PM 66.2 °F 57.2 °F 73% 29.91 in 10.0 mi NNW 6.9 mph - N/A   Clear
2:55 PM 66.2 °F 57.2 °F 73% 29.91 in 9.0 mi North 8.1 mph - N/A   Clear
3:15 PM 66.2 °F 55.4 °F 68% 29.90 in 10.0 mi North 5.8 mph - N/A   Clear
3:35 PM 66.2 °F 55.4 °F 68% 29.90 in 10.0 mi North 5.8 mph - N/A   Clear
3:55 PM 68.0 °F 55.4 °F 64% 29.89 in 9.0 mi North 5.8 mph - N/A   Clear
4:15 PM 68.0 °F 57.2 °F 68% 29.88 in 10.0 mi North 6.9 mph - N/A   Clear
4:35 PM 66.2 °F 57.2 °F 73% 29.89 in 8.0 mi North 6.9 mph - N/A   Clear
4:55 PM 66.2 °F 57.2 °F 73% 29.89 in 10.0 mi NNW 5.8 mph - N/A   Clear
5:15 PM 66.2 °F 55.4 °F 68% 29.88 in 10.0 mi North 4.6 mph - N/A   Clear
5:35 PM 66.2 °F 57.2 °F 73% 29.88 in 10.0 mi North 4.6 mph - N/A   Clear
5:55 PM 68.0 °F 55.4 °F 64% 29.88 in 10.0 mi North 3.5 mph - N/A   Clear
6:15 PM 66.2 °F 57.2 °F 73% 29.87 in 10.0 mi Calm Calm - N/A   Clear
6:35 PM 68.0 °F 57.2 °F 68% 29.88 in 9.0 mi Calm Calm - N/A   Clear
6:55 PM 68.0 °F 57.2 °F 68% 29.88 in 10.0 mi Calm Calm - N/A   Clear
7:15 PM 68.0 °F 57.2 °F 68% 29.88 in 10.0 mi Calm Calm - N/A   Clear
7:35 PM 66.2 °F 57.2 °F 73% 29.88 in 9.0 mi Calm Calm - N/A   Clear
7:55 PM 68.0 °F 55.4 °F 64% 29.88 in 10.0 mi Calm Calm - N/A   Clear
8:15 PM 66.2 °F 55.4 °F 68% 29.89 in 9.0 mi Calm Calm - N/A   Clear
8:35 PM 66.2 °F 55.4 °F 68% 29.90 in 8.0 mi Calm Calm - N/A   Clear
8:55 PM 62.6 °F 57.2 °F 82% 29.90 in 9.0 mi Calm Calm - N/A   Clear
9:15 PM 62.6 °F 55.4 °F 77% 29.89 in 9.0 mi Calm Calm - N/A   Clear
9:35 PM 62.6 °F 55.4 °F 77% 29.90 in 9.0 mi Calm Calm - N/A   Clear
9:55 PM 60.8 °F 55.4 °F 82% 29.91 in 10.0 mi Calm Calm - N/A   Clear
10:15 PM 60.8 °F 55.4 °F 82% 29.90 in 10.0 mi South 5.8 mph - N/A   Clear
10:35 PM 60.8 °F 55.4 °F 82% 29.91 in 9.0 mi SE 4.6 mph - N/A   Clear
10:55 PM 59.0 °F 55.4 °F 88% 29.91 in 10.0 mi Calm Calm - N/A   Clear
11:15 PM 59.0 °F 53.6 °F 82% 29.91 in 9.0 mi Calm Calm - N/A   Clear
11:35 PM 59.0 °F 53.6 °F 82% 29.91 in 10.0 mi Calm Calm - N/A   Clear
11:55 PM 59.0 °F 53.6 °F 82% 29.92 in 8.0 mi North - - N/A   Clear